createdAt,value
2024-04-13T00:01:10.388Z,13.51
2024-04-13T00:04:08.586Z,13.43
2024-04-13T00:06:43.209Z,13.23
2024-04-13T00:09:18.223Z,13.13
2024-04-13T00:11:50.602Z,13.21
2024-04-13T00:14:23.844Z,13.24
2024-04-13T00:16:58.539Z,13.16
2024-04-13T00:19:32.402Z,13.09
2024-04-13T00:22:09.592Z,12.91
2024-04-13T00:24:45.124Z,12.67
2024-04-13T00:27:21.197Z,12.69
2024-04-13T00:29:56.262Z,12.54
2024-04-13T00:32:28.591Z,12.46
2024-04-13T00:35:01.040Z,12.56
2024-04-13T00:37:35.531Z,12.70
2024-04-13T00:40:10.744Z,12.74
2024-04-13T00:42:46.740Z,12.83
2024-04-13T00:45:19.509Z,12.73
2024-04-13T00:47:53.896Z,12.69
2024-04-13T00:50:30.074Z,12.81
2024-04-13T00:53:05.014Z,13.22
2024-04-13T00:55:40.833Z,13.39
2024-04-13T00:58:15.357Z,13.30
2024-04-13T01:00:48.828Z,12.96
2024-04-13T01:03:23.654Z,12.79
2024-04-13T01:05:56.880Z,12.84
2024-04-13T01:08:30.164Z,12.69
2024-04-13T01:11:05.288Z,12.55
2024-04-13T01:13:40.023Z,12.41
2024-04-13T01:16:16.196Z,12.14
2024-04-13T01:18:48.975Z,12.24
2024-04-13T01:21:22.452Z,12.39
2024-04-13T01:24:00.566Z,12.38
2024-04-13T01:26:39.504Z,12.15
2024-04-13T01:29:15.355Z,12.25
2024-04-13T01:31:48.300Z,12.32
2024-04-13T01:34:26.137Z,12.38
2024-04-13T01:36:59.956Z,12.30
2024-04-13T01:39:33.557Z,12.02
2024-04-13T01:42:07.611Z,12.09
2024-04-13T01:44:39.887Z,12.12
2024-04-13T01:47:13.101Z,11.97
2024-04-13T01:49:45.951Z,11.83
2024-04-13T01:52:18.264Z,11.92
2024-04-13T01:54:50.174Z,12.20
2024-04-13T01:57:25.579Z,12.32
2024-04-13T01:59:58.113Z,12.08
2024-04-13T02:02:30.816Z,11.83
2024-04-13T02:05:04.740Z,11.65
2024-04-13T02:07:40.045Z,11.49
2024-04-13T02:10:16.301Z,11.35
2024-04-13T02:12:48.279Z,11.27
2024-04-13T02:15:20.569Z,11.38
2024-04-13T02:17:57.696Z,11.65
2024-04-13T02:20:30.165Z,11.63
2024-04-13T02:23:06.136Z,11.42
2024-04-13T02:25:38.193Z,11.31
2024-04-13T02:28:10.719Z,11.27
2024-04-13T02:30:44.117Z,11.17
2024-04-13T02:33:18.250Z,11.14
2024-04-13T02:36:01.417Z,11.21
2024-04-13T02:38:35.109Z,11.30
2024-04-13T02:41:13.754Z,11.18
2024-04-13T02:43:46.398Z,11.26
2024-04-13T02:46:18.776Z,11.49
2024-04-13T02:48:51.132Z,11.47
2024-04-13T02:51:26.785Z,11.34
2024-04-13T02:54:00.227Z,11.52
2024-04-13T02:56:35.994Z,11.57
2024-04-13T02:59:08.382Z,11.36
2024-04-13T03:01:41.481Z,11.18
2024-04-13T03:04:19.265Z,11.32
2024-04-13T03:06:55.316Z,11.49
2024-04-13T03:09:30.686Z,11.40
2024-04-13T03:12:03.935Z,11.41
2024-04-13T03:14:36.391Z,11.49
2024-04-13T03:17:08.895Z,11.61
2024-04-13T03:19:41.628Z,11.68
2024-04-13T03:22:19.433Z,11.39
2024-04-13T03:24:52.406Z,11.20
2024-04-13T03:27:25.220Z,11.20
2024-04-13T03:29:58.066Z,11.24
2024-04-13T03:32:30.234Z,11.05
2024-04-13T03:35:10.879Z,11.15
2024-04-13T03:37:45.174Z,11.28
2024-04-13T03:40:17.754Z,11.17
2024-04-13T03:42:49.979Z,11.09
2024-04-13T03:45:24.476Z,11.01
2024-04-13T03:47:57.406Z,10.91
2024-04-13T03:50:29.907Z,10.74
2024-04-13T03:53:02.924Z,10.67
2024-04-13T03:55:35.799Z,10.68
2024-04-13T03:58:08.015Z,10.74
2024-04-13T04:00:40.117Z,10.56
2024-04-13T04:03:15.909Z,10.55
2024-04-13T04:05:52.194Z,10.74
2024-04-13T04:08:24.822Z,10.64
2024-04-13T04:10:58.039Z,10.61
2024-04-13T04:13:30.877Z,10.62
2024-04-13T04:16:04.463Z,10.56
2024-04-13T04:18:39.984Z,10.41
2024-04-13T04:21:13.701Z,10.48
2024-04-13T04:23:46.685Z,10.42
2024-04-13T04:26:18.986Z,10.31
2024-04-13T04:28:53.343Z,10.19
2024-04-13T04:31:28.174Z,10.13
2024-04-13T04:34:02.290Z,10.06
2024-04-13T04:36:40.788Z,10.04
2024-04-13T04:39:19.048Z,10.06
2024-04-13T04:41:53.298Z,10.01
2024-04-13T04:44:29.639Z,9.93
2024-04-13T04:47:02.485Z,10.07
2024-04-13T04:49:36.767Z,10.21
2024-04-13T04:52:16.711Z,10.36
2024-04-13T04:54:48.680Z,10.34
2024-04-13T04:57:21.833Z,10.58
2024-04-13T04:59:58.353Z,10.93
2024-04-13T05:02:30.654Z,10.89
2024-04-13T05:05:10.019Z,10.76
2024-04-13T05:07:44.653Z,10.96
2024-04-13T05:10:18.623Z,11.09
2024-04-13T05:12:50.824Z,10.99
2024-04-13T05:15:26.103Z,10.96
2024-04-13T05:17:58.329Z,11.23
2024-04-13T05:20:30.763Z,11.29
2024-04-13T05:23:06.452Z,11.15
2024-04-13T05:25:38.367Z,11.50
2024-04-13T05:28:10.671Z,11.74
2024-04-13T05:30:58.652Z,11.57
2024-04-13T05:33:32.472Z,11.59
2024-04-13T05:36:07.776Z,11.81
2024-04-13T05:38:42.227Z,11.78
2024-04-13T05:41:14.971Z,11.78
2024-04-13T05:43:47.946Z,12.01
2024-04-13T05:46:21.745Z,12.19
2024-04-13T05:48:55.998Z,12.21
2024-04-13T05:51:28.448Z,12.64
2024-04-13T05:54:00.965Z,13.51
2024-04-13T05:56:36.553Z,14.11
2024-04-13T05:59:09.218Z,14.52
2024-04-13T06:01:43.777Z,15.24
2024-04-13T06:04:16.988Z,16.18
2024-04-13T06:06:52.444Z,17.11
2024-04-13T06:09:24.915Z,17.14
2024-04-13T06:11:58.105Z,17.22
2024-04-13T06:14:32.365Z,17.69
2024-04-13T06:17:04.597Z,17.85
2024-04-13T06:19:38.017Z,17.68
2024-04-13T06:22:13.760Z,18.09
2024-04-13T06:24:46.310Z,18.94
2024-04-13T06:27:18.477Z,19.47
2024-04-13T06:29:55.496Z,19.62
2024-04-13T06:32:28.218Z,19.94
2024-04-13T06:35:00.807Z,20.03
2024-04-13T06:37:35.793Z,20.57
2024-04-13T06:40:17.505Z,21.00
2024-04-13T06:42:49.731Z,20.86
2024-04-13T06:45:22.551Z,21.87
2024-04-13T06:47:54.971Z,22.02
2024-04-13T06:50:28.113Z,22.15
2024-04-13T06:53:00.161Z,22.05
2024-04-13T06:55:36.049Z,23.03
2024-04-13T06:58:08.896Z,24.01
2024-04-13T07:00:42.317Z,24.35
2024-04-13T07:03:17.299Z,24.55
2024-04-13T07:05:55.877Z,24.08
2024-04-13T07:08:29.546Z,23.22
2024-04-13T07:11:04.759Z,23.48
2024-04-13T07:13:39.574Z,24.02
2024-04-13T07:16:13.422Z,24.17
2024-04-13T07:18:48.004Z,24.62
2024-04-13T07:21:21.071Z,25.12
2024-04-13T07:23:54.657Z,25.69
2024-04-13T07:26:27.079Z,26.39
2024-04-13T07:28:58.784Z,26.67
2024-04-13T07:31:31.048Z,26.48
2024-04-13T07:34:05.245Z,26.87
2024-04-13T07:36:38.144Z,26.70
2024-04-13T07:39:14.403Z,26.83
2024-04-13T07:41:47.114Z,27.03
2024-04-13T07:44:19.161Z,27.17
2024-04-13T07:46:52.184Z,27.00
2024-04-13T07:49:28.029Z,26.98
2024-04-13T07:52:03.284Z,26.06
2024-04-13T07:54:37.721Z,27.02
2024-04-13T07:57:10.194Z,27.51
2024-04-13T07:59:44.822Z,27.85
2024-04-13T08:02:17.942Z,28.28
2024-04-13T08:04:54.188Z,27.96
2024-04-13T08:07:26.780Z,27.77
2024-04-13T08:09:58.638Z,27.19
2024-04-13T08:12:33.310Z,26.90
2024-04-13T08:15:09.754Z,25.84
2024-04-13T08:17:42.352Z,25.43
2024-04-13T08:20:17.649Z,25.22
2024-04-13T08:22:50.271Z,25.56
2024-04-13T08:25:25.382Z,25.66
2024-04-13T08:27:58.000Z,25.95
2024-04-13T08:30:30.804Z,26.21
2024-04-13T08:33:05.991Z,26.58
2024-04-13T08:35:38.233Z,26.47
2024-04-13T08:38:14.334Z,26.24
2024-04-13T08:40:52.275Z,27.40
2024-04-13T08:43:26.707Z,27.66
2024-04-13T08:45:59.493Z,27.24
2024-04-13T08:48:32.458Z,27.64
2024-04-13T08:51:08.064Z,26.61
2024-04-13T08:53:45.466Z,27.13
2024-04-13T08:56:22.209Z,27.91
2024-04-13T08:58:56.255Z,27.64
2024-04-13T09:01:28.827Z,26.65
2024-04-13T09:04:02.435Z,26.56
2024-04-13T09:06:38.606Z,26.69
2024-04-13T09:09:13.124Z,26.83
2024-04-13T09:11:46.824Z,27.98
2024-04-13T09:14:18.847Z,28.40
2024-04-13T09:16:52.173Z,28.18
2024-04-13T09:19:25.357Z,27.74
2024-04-13T09:21:58.214Z,27.19
2024-04-13T09:24:40.845Z,28.02
2024-04-13T09:27:22.451Z,28.39
2024-04-13T09:29:55.295Z,28.00
2024-04-13T09:32:29.175Z,28.43
2024-04-13T09:35:15.556Z,29.01
2024-04-13T09:37:48.887Z,29.49
2024-04-13T09:40:23.549Z,29.41
2024-04-13T09:42:58.292Z,29.22
2024-04-13T09:45:34.784Z,28.72
2024-04-13T09:48:11.054Z,28.13
2024-04-13T09:50:46.637Z,27.83
2024-04-13T09:53:19.433Z,27.84
2024-04-13T09:55:52.473Z,27.68
2024-04-13T09:58:27.997Z,27.62
2024-04-13T10:01:03.524Z,28.12
2024-04-13T10:03:36.269Z,27.89
2024-04-13T10:06:16.520Z,28.00
2024-04-13T10:08:51.050Z,28.16
2024-04-13T10:11:28.324Z,28.56
2024-04-13T10:14:01.799Z,29.02
2024-04-13T10:16:36.350Z,28.84
2024-04-13T10:19:14.458Z,28.68
2024-04-13T10:21:52.082Z,28.21
2024-04-13T10:24:29.286Z,28.53
2024-04-13T10:27:10.366Z,28.51
2024-04-13T10:29:49.494Z,28.32
2024-04-13T10:32:26.443Z,27.97
2024-04-13T10:35:08.072Z,27.44
2024-04-13T10:37:40.482Z,28.03
2024-04-13T10:40:24.833Z,27.94
2024-04-13T10:43:07.597Z,27.52
2024-04-13T10:45:40.716Z,27.15
2024-04-13T10:48:17.211Z,26.88
2024-04-13T10:50:52.466Z,27.22
2024-04-13T10:53:27.468Z,27.19
2024-04-13T10:56:04.964Z,26.81
2024-04-13T10:58:42.931Z,26.68
2024-04-13T11:01:22.660Z,26.78
2024-04-13T11:04:08.331Z,26.74
2024-04-13T11:06:43.434Z,26.61
2024-04-13T11:09:16.654Z,26.91
2024-04-13T11:11:49.023Z,27.09
2024-04-13T11:14:23.527Z,26.60
2024-04-13T11:16:56.322Z,26.11
2024-04-13T11:19:28.744Z,26.07
2024-04-13T11:22:05.943Z,25.91
2024-04-13T11:24:38.883Z,26.08
2024-04-13T11:27:11.350Z,26.46
2024-04-13T11:29:45.559Z,26.51
2024-04-13T11:32:19.305Z,26.90
2024-04-13T11:34:55.403Z,26.55
2024-04-13T11:37:27.833Z,25.56
2024-04-13T11:40:00.253Z,25.81
2024-04-13T11:42:42.008Z,25.48
2024-04-13T11:45:18.964Z,25.05
2024-04-13T11:47:52.340Z,24.89
2024-04-13T11:50:25.094Z,24.91
2024-04-13T11:52:58.467Z,24.50
2024-04-13T11:55:39.215Z,24.26
2024-04-13T11:58:22.480Z,24.43
2024-04-13T12:00:56.235Z,24.56
2024-04-13T12:03:28.268Z,24.54
2024-04-13T12:06:02.095Z,24.44
2024-04-13T12:08:34.769Z,24.27
2024-04-13T12:11:08.631Z,24.39
2024-04-13T12:13:44.027Z,24.64
2024-04-13T12:16:18.843Z,24.47
2024-04-13T12:18:51.144Z,24.63
2024-04-13T12:21:27.372Z,24.73
2024-04-13T12:24:01.917Z,24.31
2024-04-13T12:26:37.162Z,24.29
2024-04-13T12:29:09.627Z,24.36
2024-04-13T12:31:46.577Z,24.12
2024-04-13T12:34:25.489Z,24.22
2024-04-13T12:36:58.350Z,24.25
2024-04-13T12:39:31.765Z,23.91
2024-04-13T12:42:09.393Z,23.66
2024-04-13T12:44:44.108Z,24.07
2024-04-13T12:47:18.359Z,24.27
2024-04-13T12:49:50.455Z,24.38
2024-04-13T12:52:27.357Z,24.59
2024-04-13T12:54:59.999Z,24.53
2024-04-13T12:57:33.675Z,24.45
2024-04-13T13:00:07.752Z,24.51
2024-04-13T13:02:40.837Z,24.61
2024-04-13T13:05:14.460Z,24.63
2024-04-13T13:07:46.524Z,24.76
2024-04-13T13:10:18.389Z,24.87
2024-04-13T13:12:50.495Z,24.72
2024-04-13T13:15:25.228Z,24.58
2024-04-13T13:18:00.621Z,24.71
2024-04-13T13:20:34.082Z,25.01
2024-04-13T13:23:08.520Z,24.79
2024-04-13T13:25:42.750Z,24.50
2024-04-13T13:28:15.549Z,24.54
2024-04-13T13:30:48.271Z,24.67
2024-04-13T13:33:21.423Z,24.83
2024-04-13T13:35:57.637Z,24.87
2024-04-13T13:38:30.047Z,25.00
2024-04-13T13:41:06.104Z,24.93
2024-04-13T13:43:38.580Z,24.77
2024-04-13T13:46:11.047Z,24.54
2024-04-13T13:48:45.677Z,24.71
2024-04-13T13:51:17.697Z,24.81
2024-04-13T13:53:49.722Z,24.83
2024-04-13T13:56:22.359Z,24.65
2024-04-13T13:58:55.941Z,24.62
2024-04-13T14:01:28.361Z,24.54
2024-04-13T14:04:02.409Z,24.49
2024-04-13T14:06:36.322Z,24.53
2024-04-13T14:09:08.793Z,24.43
2024-04-13T14:11:42.362Z,24.50
2024-04-13T14:14:18.967Z,24.36
2024-04-13T14:16:52.585Z,24.34
2024-04-13T14:19:25.055Z,24.23
2024-04-13T14:21:59.974Z,24.43
2024-04-13T14:24:36.741Z,24.51
2024-04-13T14:27:09.392Z,24.58
2024-04-13T14:29:42.219Z,24.69
2024-04-13T14:32:16.142Z,24.81
2024-04-13T14:34:48.785Z,24.82
2024-04-13T14:37:21.056Z,24.47
2024-04-13T14:39:55.226Z,24.58
2024-04-13T14:42:30.588Z,24.53
2024-04-13T14:45:07.351Z,24.52
2024-04-13T14:47:42.336Z,24.44
2024-04-13T14:50:15.140Z,24.36
2024-04-13T14:52:48.191Z,24.16
2024-04-13T14:55:24.170Z,24.17
2024-04-13T14:57:57.062Z,24.33
2024-04-13T15:00:29.220Z,24.37
2024-04-13T15:03:04.398Z,24.44
2024-04-13T15:05:37.846Z,24.55
2024-04-13T15:08:12.991Z,24.46
2024-04-13T15:10:50.178Z,24.13
2024-04-13T15:13:23.671Z,24.18
2024-04-13T15:15:57.311Z,24.36
2024-04-13T15:18:29.622Z,24.31
2024-04-13T15:21:02.556Z,24.31
2024-04-13T15:23:35.305Z,24.36
2024-04-13T15:26:10.271Z,24.39
2024-04-13T15:28:45.433Z,24.27
2024-04-13T15:31:18.721Z,24.40
2024-04-13T15:33:51.021Z,24.50
2024-04-13T15:36:25.217Z,24.48
2024-04-13T15:38:59.932Z,24.58
2024-04-13T15:41:32.652Z,24.76
2024-04-13T15:44:05.102Z,24.53
2024-04-13T15:46:38.724Z,24.52
2024-04-13T15:49:11.178Z,24.42
2024-04-13T15:51:45.056Z,24.48
2024-04-13T15:54:18.048Z,24.42
2024-04-13T15:56:50.217Z,24.24
2024-04-13T15:59:28.397Z,24.12
2024-04-13T16:02:10.133Z,24.10
2024-04-13T16:04:47.249Z,24.09
2024-04-13T16:07:19.700Z,24.08
2024-04-13T16:09:55.781Z,24.05
2024-04-13T16:12:28.713Z,24.04
2024-04-13T16:15:01.123Z,24.02
2024-04-13T16:17:37.920Z,23.67
2024-04-13T16:20:17.550Z,23.71
2024-04-13T16:22:53.588Z,23.81
2024-04-13T16:25:27.876Z,23.81
2024-04-13T16:28:02.357Z,23.83
2024-04-13T16:30:35.559Z,23.82
2024-04-13T16:33:13.554Z,23.77
2024-04-13T16:35:47.036Z,23.52
2024-04-13T16:38:19.017Z,23.66
2024-04-13T16:40:54.773Z,23.73
2024-04-13T16:43:31.827Z,23.63
2024-04-13T16:46:04.919Z,23.59
2024-04-13T16:48:38.402Z,23.45
2024-04-13T16:51:10.719Z,23.19
2024-04-13T16:53:45.509Z,23.09
2024-04-13T16:56:17.733Z,23.11
2024-04-13T16:58:50.041Z,23.12
2024-04-13T17:01:26.693Z,23.02
2024-04-13T17:03:59.025Z,23.01
2024-04-13T17:06:31.403Z,22.91
2024-04-13T17:09:05.659Z,22.71
2024-04-13T17:11:38.164Z,22.67
2024-04-13T17:14:10.292Z,22.68
2024-04-13T17:16:46.644Z,22.66
2024-04-13T17:19:18.819Z,22.56
2024-04-13T17:21:51.856Z,22.46
2024-04-13T17:24:26.607Z,22.33
2024-04-13T17:26:57.128Z,22.30
2024-04-13T17:29:30.545Z,22.24
2024-04-13T17:32:06.173Z,22.16
2024-04-13T17:34:38.510Z,22.04
2024-04-13T17:37:10.847Z,21.96
2024-04-13T17:39:52.402Z,21.75
2024-04-13T17:42:25.539Z,21.60
2024-04-13T17:44:57.917Z,21.54
2024-04-13T17:47:29.786Z,21.50
2024-04-13T17:50:06.565Z,21.42
2024-04-13T17:52:39.062Z,21.33
2024-04-13T17:55:11.349Z,21.14
2024-04-13T17:57:48.524Z,21.02
2024-04-13T18:00:22.101Z,20.96
2024-04-13T18:02:56.726Z,20.86
2024-04-13T18:05:27.952Z,20.78
2024-04-13T18:08:00.205Z,20.70
2024-04-13T18:10:34.463Z,20.61
2024-04-13T18:13:07.194Z,20.51
2024-04-13T18:15:39.329Z,20.47
2024-04-13T18:18:12.463Z,20.41
2024-04-13T18:20:44.808Z,20.32
2024-04-13T18:23:23.202Z,20.21
2024-04-13T18:25:56.087Z,20.17
2024-04-13T18:28:31.005Z,20.10
2024-04-13T18:31:05.130Z,20.05
2024-04-13T18:33:42.478Z,20.02
2024-04-13T18:36:15.993Z,19.94
2024-04-13T18:38:52.967Z,19.87
2024-04-13T18:41:27.222Z,19.85
2024-04-13T18:43:59.610Z,19.82
2024-04-13T18:46:34.971Z,19.79
2024-04-13T18:49:07.889Z,19.72
2024-04-13T18:51:42.016Z,19.61
2024-04-13T18:54:14.756Z,19.49
2024-04-13T18:56:47.821Z,19.44
2024-04-13T18:59:20.764Z,19.41
2024-04-13T19:01:55.162Z,19.34
2024-04-13T19:04:27.900Z,19.27
2024-04-13T19:07:00.125Z,19.17
2024-04-13T19:09:35.114Z,19.08
2024-04-13T19:12:08.927Z,19.02
2024-04-13T19:14:40.833Z,19.00
2024-04-13T19:17:16.031Z,18.88
2024-04-13T19:19:47.581Z,18.77
2024-04-13T19:22:20.263Z,18.65
2024-04-13T19:24:58.102Z,18.55
2024-04-13T19:27:33.085Z,18.47
2024-04-13T19:30:08.189Z,18.40
2024-04-13T19:32:40.075Z,18.31
2024-04-13T19:35:13.803Z,18.25
2024-04-13T19:37:46.600Z,18.20
2024-04-13T19:40:19.833Z,18.19
2024-04-13T19:42:53.003Z,18.21
2024-04-13T19:45:28.321Z,18.48
2024-04-13T19:48:00.348Z,18.54
2024-04-13T19:50:35.983Z,18.43
2024-04-13T19:53:08.202Z,18.32
2024-04-13T19:55:40.760Z,18.21
2024-04-13T19:58:14.464Z,18.13
2024-04-13T20:00:49.410Z,18.09
2024-04-13T20:03:25.726Z,18.05
2024-04-13T20:06:03.327Z,18.00
2024-04-13T20:08:37.865Z,17.97
2024-04-13T20:11:14.527Z,17.99
2024-04-13T20:13:48.363Z,17.92
2024-04-13T20:16:40.765Z,17.87
2024-04-13T20:19:15.183Z,17.78
2024-04-13T20:21:48.290Z,17.75
2024-04-13T20:24:23.097Z,17.73
2024-04-13T20:26:58.535Z,17.88
2024-04-13T20:29:30.393Z,17.85
2024-04-13T20:32:06.264Z,17.87
2024-04-13T20:34:38.641Z,18.00
2024-04-13T20:37:11.046Z,18.14
2024-04-13T20:39:48.311Z,18.05
2024-04-13T20:42:20.134Z,18.30
2024-04-13T20:44:55.511Z,18.40
2024-04-13T20:47:28.225Z,18.23
2024-04-13T20:50:00.311Z,18.06
2024-04-13T20:52:52.540Z,18.13
2024-04-13T20:55:32.352Z,18.20
2024-04-13T20:58:06.608Z,18.32
2024-04-13T21:00:40.648Z,18.36
2024-04-13T21:03:14.633Z,18.31
2024-04-13T21:05:49.635Z,18.06
2024-04-13T21:08:22.470Z,18.04
2024-04-13T21:10:56.181Z,18.02
2024-04-13T21:13:28.385Z,18.20
2024-04-13T21:16:00.871Z,18.18
2024-04-13T21:18:35.408Z,18.04
2024-04-13T21:21:08.887Z,17.91
2024-04-13T21:23:40.865Z,17.88
2024-04-13T21:26:16.828Z,17.60
2024-04-13T21:28:48.917Z,17.46
2024-04-13T21:31:20.811Z,17.66
2024-04-13T21:33:55.851Z,17.74
2024-04-13T21:36:32.788Z,17.80
2024-04-13T21:39:08.205Z,17.97
2024-04-13T21:41:40.759Z,17.93
2024-04-13T21:44:16.429Z,17.70
2024-04-13T21:46:51.098Z,17.69
2024-04-13T21:49:28.690Z,17.71
2024-04-13T21:52:05.424Z,17.91
2024-04-13T21:54:44.621Z,18.02
2024-04-13T21:57:18.194Z,18.08
2024-04-13T21:59:50.348Z,18.15
2024-04-13T22:02:25.117Z,17.78
2024-04-13T22:05:00.025Z,17.71
2024-04-13T22:07:34.717Z,17.77
2024-04-13T22:10:08.371Z,17.84
2024-04-13T22:12:44.437Z,17.87
2024-04-13T22:15:17.451Z,17.79
2024-04-13T22:17:49.702Z,17.53
2024-04-13T22:20:23.520Z,17.28
2024-04-13T22:22:56.523Z,17.24
2024-04-13T22:25:30.584Z,17.23
2024-04-13T22:28:04.740Z,17.34
2024-04-13T22:30:39.925Z,17.47
2024-04-13T22:33:13.675Z,17.46
2024-04-13T22:35:53.300Z,17.21
2024-04-13T22:38:27.258Z,17.13
2024-04-13T22:40:59.181Z,17.42
2024-04-13T22:43:34.625Z,17.64
2024-04-13T22:46:07.203Z,17.60
2024-04-13T22:48:40.111Z,17.58
2024-04-13T22:51:13.774Z,17.59
2024-04-13T22:53:48.031Z,17.53
2024-04-13T22:56:19.817Z,17.35
2024-04-13T22:58:53.899Z,17.11
2024-04-13T23:01:26.876Z,17.06
2024-04-13T23:03:58.775Z,17.00
2024-04-13T23:06:30.922Z,16.84
2024-04-13T23:09:06.650Z,16.74
2024-04-13T23:11:40.007Z,16.80
2024-04-13T23:14:15.402Z,16.80
2024-04-13T23:16:50.158Z,16.91
2024-04-13T23:19:23.915Z,17.03
2024-04-13T23:21:57.963Z,17.06
2024-04-13T23:24:30.023Z,16.70
2024-04-13T23:27:05.146Z,16.67
2024-04-13T23:29:37.759Z,16.83
2024-04-13T23:32:10.392Z,16.85
2024-04-13T23:34:47.198Z,16.78
2024-04-13T23:37:18.962Z,16.79
2024-04-13T23:39:53.473Z,16.68
2024-04-13T23:42:26.711Z,16.61
2024-04-13T23:44:59.016Z,16.26
2024-04-13T23:47:32.209Z,16.10
2024-04-13T23:50:05.590Z,16.20
2024-04-13T23:52:37.920Z,16.33
2024-04-13T23:55:10.775Z,16.37
2024-04-13T23:57:45.759Z,16.30
